Time;durP1;ratioP1;P1;durP2;ratioP2;P2;SDS_P1;SDS_P2;PMS_P1;PMS_P2;Temp;Humidity;BMP_temperature;BMP_pressure;BME280_temperature;BME280_humidity;BME280_pressure;Samples;Min_cycle;Max_cycle;Signal;HPM_P1;HPM_P2
2023/02/26 00:08:15;;;;;;;1999.90;999.90;;;0.50;99.90;;;;;;6740343;88;20172;-77
2023/02/26 00:18:16;;;;;;;1999.90;999.90;;;0.60;99.90;;;;;;6745402;88;20245;-79
2023/02/26 00:28:17;;;;;;;1999.90;999.90;;;0.60;99.90;;;;;;6739085;88;20248;-78
2023/02/26 00:38:17;;;;;;;1999.90;999.90;;;0.50;99.90;;;;;;6741697;88;20310;-76
2023/02/26 00:48:33;;;;;;;1999.90;999.90;;;0.70;99.90;;;;;;6743262;88;20185;-78
2023/02/26 00:58:34;;;;;;;1999.90;999.90;;;0.80;99.90;;;;;;6744282;88;20221;-78
2023/02/26 01:09:00;;;;;;;1999.90;999.90;;;0.90;99.90;;;;;;6741817;88;20362;-77
2023/02/26 01:19:36;;;;;;;1999.90;999.90;;;0.80;99.90;;;;;;6740026;88;20189;-78
2023/02/26 01:29:37;;;;;;;1999.90;999.90;;;0.70;99.90;;;;;;6739327;88;20708;-77
2023/02/26 01:40:00;;;;;;;1999.90;999.90;;;0.50;99.90;;;;;;6741203;88;20207;-77
2023/02/26 01:50:16;;;;;;;1999.90;999.90;;;0.50;99.90;;;;;;6742333;88;20310;-78
2023/02/26 02:00:17;;;;;;;1999.90;999.90;;;0.40;99.90;;;;;;6739984;88;20231;-77
2023/02/26 02:10:18;;;;;;;1999.90;999.90;;;0.40;99.90;;;;;;6739160;88;20182;-77
2023/02/26 02:20:25;;;;;;;1999.90;999.90;;;0.30;99.90;;;;;;6736471;88;20173;-77
2023/02/26 02:30:31;;;;;;;1999.90;999.90;;;0.30;99.90;;;;;;6736349;88;20212;-77
2023/02/26 02:40:36;;;;;;;1999.90;999.90;;;0.10;99.90;;;;;;6738075;88;20255;-78
2023/02/26 02:50:41;;;;;;;1999.90;999.90;;;0.10;99.90;;;;;;6738984;88;20210;-77
2023/02/26 03:00:47;;;;;;;1999.90;999.90;;;-0.10;99.90;;;;;;6748295;88;20311;-76
2023/02/26 03:10:48;;;;;;;1999.90;999.90;;;-0.20;99.90;;;;;;6745477;88;20224;-77
2023/02/26 03:21:03;;;;;;;1999.90;999.90;;;-0.10;99.90;;;;;;6743116;88;20215;-79
2023/02/26 03:31:14;;;;;;;1999.90;999.90;;;-0.30;99.90;;;;;;6740043;88;20307;-77
2023/02/26 03:41:21;;;;;;;1999.90;999.90;;;-0.40;99.90;;;;;;6747405;88;20198;-77
2023/02/26 03:51:23;;;;;;;1999.90;999.90;;;-0.40;99.90;;;;;;6741176;88;20176;-77
2023/02/26 04:01:32;;;;;;;1999.90;999.90;;;-0.40;99.90;;;;;;6741420;88;20790;-77
2023/02/26 04:11:34;;;;;;;1999.90;999.90;;;-0.50;99.90;;;;;;6737271;88;20780;-77
2023/02/26 04:21:34;;;;;;;1999.90;999.90;;;-0.60;99.90;;;;;;6744505;88;20219;-76
2023/02/26 04:31:35;;;;;;;1999.90;999.90;;;-0.60;99.90;;;;;;6737558;88;20955;-76
2023/02/26 04:41:37;;;;;;;1999.90;999.90;;;-0.60;99.90;;;;;;6748583;88;20192;-77
2023/02/26 04:51:37;;;;;;;1999.90;999.90;;;-0.70;99.90;;;;;;6742916;88;20181;-77
2023/02/26 05:01:38;;;;;;;1999.90;999.90;;;-0.50;99.90;;;;;;6743042;88;20711;-76
2023/02/26 05:11:38;;;;;;;1999.90;999.90;;;-0.60;99.90;;;;;;6743414;88;20974;-77
2023/02/26 05:21:39;;;;;;;1999.90;999.90;;;-0.60;99.90;;;;;;6745671;88;20198;-77
2023/02/26 05:31:40;;;;;;;1999.90;999.90;;;-0.70;99.90;;;;;;6746446;88;20648;-77
2023/02/26 05:41:40;;;;;;;1999.90;999.90;;;-0.70;99.90;;;;;;6750632;88;20169;-77
2023/02/26 06:02:43;;;;;;;1999.90;999.90;;;-0.80;99.90;;;;;;6709826;88;20199;-77
2023/02/26 06:12:43;;;;;;;1999.90;999.90;;;-0.90;99.90;;;;;;6727774;88;20640;-77
2023/02/26 06:22:44;;;;;;;1999.90;999.90;;;-0.90;99.90;;;;;;6752961;88;20189;-77
2023/02/26 06:32:44;;;;;;;1999.90;999.90;;;-0.90;99.90;;;;;;6748330;88;20180;-77
2023/02/26 06:42:45;;;;;;;1999.90;999.90;;;-0.90;99.90;;;;;;6723770;88;20197;-77
2023/02/26 06:52:45;;;;;;;1999.90;999.90;;;-0.90;99.90;;;;;;6741480;88;21267;-77
2023/02/26 07:02:46;;;;;;;1999.90;999.90;;;-0.80;99.90;;;;;;6729957;88;20232;-77
2023/02/26 07:12:47;;;;;;;1999.90;999.90;;;-0.70;99.90;;;;;;6731139;88;20189;-77
2023/02/26 07:22:48;;;;;;;1999.90;999.90;;;-0.70;99.90;;;;;;6735542;88;20287;-77
2023/02/26 07:32:48;;;;;;;1999.90;999.90;;;-0.60;99.90;;;;;;6736928;88;20185;-77
2023/02/26 07:42:49;;;;;;;1999.90;999.90;;;-0.30;99.90;;;;;;6735924;88;20715;-80
2023/02/26 07:52:53;;;;;;;1999.90;999.90;;;0.10;99.90;;;;;;6743286;88;20234;-76
2023/02/26 08:02:54;;;;;;;1999.90;999.90;;;0.40;99.90;;;;;;6736371;88;20234;-77
2023/02/26 08:12:55;;;;;;;1999.90;999.90;;;1.80;99.90;;;;;;6736263;88;20592;-77
2023/02/26 08:22:55;;;;;;;1999.90;999.90;;;3.90;99.90;;;;;;6724435;88;20219;-77
2023/02/26 08:32:56;;;;;;;1999.90;999.90;;;3.80;99.90;;;;;;6736676;88;20753;-77
2023/02/26 08:42:56;;;;;;;1999.90;999.90;;;4.00;99.90;;;;;;6742410;88;20258;-77
2023/02/26 08:52:57;;;;;;;1999.90;999.90;;;3.90;99.90;;;;;;6741831;88;20181;-78
2023/02/26 09:02:58;;;;;;;1999.90;999.90;;;3.80;99.90;;;;;;6742387;88;20263;-79
2023/02/26 09:12:59;;;;;;;1999.90;999.90;;;3.70;99.90;;;;;;6741860;88;20185;-77
2023/02/26 09:23:00;;;;;;;1999.90;999.90;;;4.10;99.90;;;;;;6738262;88;20224;-78
2023/02/26 09:33:00;;;;;;;1999.90;999.90;;;4.80;99.90;;;;;;6729440;88;20241;-77
2023/02/26 09:43:14;;;;;;;1999.90;999.90;;;5.10;99.90;;;;;;6741889;88;20193;-76
2023/02/26 09:53:51;;;;;;;1999.90;999.90;;;5.10;99.90;;;;;;6737581;88;20341;-77
2023/02/26 10:04:38;;;;;;;1999.90;999.90;;;5.00;99.90;;;;;;6706721;88;20221;-77
2023/02/26 10:15:00;;;;;;;1999.90;999.90;;;5.70;99.90;;;;;;6745540;88;20215;-77
2023/02/26 10:25:09;;;;;;;1999.90;999.90;;;6.20;99.90;;;;;;6724739;88;20206;-77
2023/02/26 10:35:17;;;;;;;1999.90;999.90;;;5.30;99.90;;;;;;6736150;88;20239;-77
2023/02/26 10:45:32;;;;;;;1999.90;999.90;;;6.00;99.20;;;;;;6752607;88;20206;-77
2023/02/26 10:55:40;;;;;;;1999.90;999.90;;;5.20;99.90;;;;;;6721707;88;20247;-77
2023/02/26 11:05:41;;;;;;;1999.90;999.90;;;6.00;98.70;;;;;;6732256;88;20217;-77
2023/02/26 11:15:44;;;;;;;1999.90;999.90;;;5.50;99.90;;;;;;6722136;88;20192;-77
2023/02/26 11:25:45;;;;;;;1999.90;999.90;;;7.00;98.60;;;;;;6736806;88;20931;-77
2023/02/26 11:35:47;;;;;;;1999.90;999.90;;;8.50;97.70;;;;;;6737047;88;20238;-77
2023/02/26 11:45:56;;;;;;;1999.90;999.90;;;6.90;97.70;;;;;;6730173;88;20291;-77
2023/02/26 11:56:00;;;;;;;1999.90;999.90;;;6.10;97.80;;;;;;6733052;88;20237;-77
2023/02/26 12:06:03;;;;;;;1999.90;999.90;;;6.80;97.30;;;;;;6734875;88;20901;-76
2023/02/26 12:16:33;;;;;;;1999.90;999.90;;;7.40;96.00;;;;;;6728914;88;20624;-78
2023/02/26 12:27:11;;;;;;;1999.90;999.90;;;6.90;96.40;;;;;;6721480;88;20341;-76
2023/02/26 12:37:30;;;;;;;1999.90;999.90;;;7.00;96.20;;;;;;6740455;88;20173;-75
2023/02/26 12:48:03;;;;;;;1999.90;999.90;;;6.10;97.20;;;;;;6734983;88;20190;-77
2023/02/26 12:58:44;;;;;;;1999.90;999.90;;;6.00;96.80;;;;;;6731116;88;20674;-76
2023/02/26 13:09:03;;;;;;;1999.90;999.90;;;5.80;96.10;;;;;;6725116;88;20220;-76
2023/02/26 13:19:27;;;;;;;1999.90;999.90;;;6.00;96.70;;;;;;6721586;88;20193;-78
2023/02/26 13:29:40;;;;;;;1999.90;999.90;;;5.90;96.50;;;;;;6733717;88;20177;-76
2023/02/26 13:39:57;;;;;;;1999.90;999.90;;;5.60;96.60;;;;;;6734966;88;20253;-76
2023/02/26 13:50:40;;;;;;;1999.90;999.90;;;5.60;97.10;;;;;;6725509;88;20244;-78
2023/02/26 14:00:46;;;;;;;1999.90;999.90;;;5.90;96.70;;;;;;6729769;88;20256;-77
2023/02/26 14:10:55;;;;;;;;;;;5.20;96.60;;;;;;6731740;88;20188;-78
2023/02/26 14:21:27;;;;;;;1999.90;999.90;;;4.70;96.60;;;;;;6730083;88;20072;-78
2023/02/26 14:32:10;;;;;;;1999.90;999.90;;;6.50;96.20;;;;;;6734007;88;20637;-77
2023/02/26 14:42:47;;;;;;;1999.90;999.90;;;6.60;96.00;;;;;;6731227;88;20228;-78
2023/02/26 14:53:04;;;;;;;1999.90;999.90;;;7.00;95.10;;;;;;6732388;88;20819;-77
2023/02/26 15:03:46;;;;;;;1999.90;999.90;;;6.00;96.40;;;;;;6733774;88;20654;-78
2023/02/26 15:14:19;;;;;;;1999.90;999.90;;;6.30;95.30;;;;;;6732188;88;20221;-77
2023/02/26 15:24:19;;;;;;;1999.90;999.90;;;6.20;96.10;;;;;;6718091;88;20687;-77
2023/02/26 15:34:20;;;;;;;1999.90;999.90;;;5.80;96.60;;;;;;6728818;88;20233;-77
2023/02/26 15:44:29;;;;;;;1999.90;999.90;;;6.30;95.70;;;;;;6734736;88;20636;-78
2023/02/26 15:54:37;;;;;;;1999.90;999.90;;;6.70;96.20;;;;;;6732440;88;20178;-78
2023/02/26 16:04:38;;;;;;;1999.90;999.90;;;5.80;96.20;;;;;;6734020;88;20239;-78
2023/02/26 16:14:42;;;;;;;1999.90;999.90;;;5.40;95.60;;;;;;6731622;88;20162;-77
2023/02/26 16:24:45;;;;;;;1999.90;999.90;;;4.90;95.80;;;;;;6732621;88;21254;-78
2023/02/26 16:34:56;;;;;;;1999.90;999.90;;;4.50;96.80;;;;;;6737996;88;20643;-79
2023/02/26 16:45:07;;;;;;;1999.90;999.90;;;4.20;97.40;;;;;;6739997;88;20202;-79
2023/02/26 16:55:17;;;;;;;1999.90;999.90;;;4.00;97.70;;;;;;6750848;88;20217;-78
2023/02/26 17:05:23;;;;;;;1999.90;999.90;;;3.60;97.50;;;;;;6750573;88;20182;-78
2023/02/26 17:15:32;;;;;;;1999.90;999.90;;;3.50;97.80;;;;;;6725761;88;20220;-78
2023/02/26 17:25:37;;;;;;;1999.90;999.90;;;3.20;97.50;;;;;;6718355;88;20237;-77
2023/02/26 17:35:38;;;;;;;1999.90;999.90;;;3.10;98.60;;;;;;6713554;88;20230;-76
2023/02/26 17:45:39;;;;;;;1999.90;999.90;;;2.80;99.40;;;;;;6721998;88;20184;-77
2023/02/26 17:55:40;;;;;;;1999.90;999.90;;;2.60;99.90;;;;;;6721018;88;20180;-76
2023/02/26 18:05:42;;;;;;;1999.90;999.90;;;2.40;99.90;;;;;;6723399;88;20261;-75
2023/02/26 18:15:42;;;;;;;1999.90;999.90;;;2.20;99.90;;;;;;6725303;88;20325;-76
2023/02/26 18:25:45;;;;;;;1999.90;999.90;;;2.20;99.90;;;;;;6732227;88;20193;-77
2023/02/26 18:35:53;;;;;;;1999.90;999.90;;;1.90;99.90;;;;;;6728065;88;20234;-76
2023/02/26 18:45:56;;;;;;;1999.90;999.90;;;1.70;99.90;;;;;;6732012;88;20250;-76
2023/02/26 18:55:57;;;;;;;1999.90;999.90;;;1.50;99.90;;;;;;6731941;88;20619;-76
2023/02/26 19:05:59;;;;;;;1999.90;999.90;;;1.20;99.90;;;;;;6734607;88;20212;-78
2023/02/26 19:15:59;;;;;;;1999.90;999.90;;;1.10;99.90;;;;;;6734302;88;20355;-77
2023/02/26 19:26:00;;;;;;;1999.90;999.90;;;0.80;99.90;;;;;;6744880;88;20239;-78
2023/02/26 19:36:01;;;;;;;1999.90;999.90;;;0.70;99.90;;;;;;6743991;88;20277;-79
2023/02/26 19:46:02;;;;;;;1999.90;999.90;;;0.50;99.90;;;;;;6754363;88;20189;-77
2023/02/26 19:56:04;;;;;;;1999.90;999.90;;;0.40;99.90;;;;;;6727015;88;20281;-75
2023/02/26 20:06:07;;;;;;;1999.90;999.90;;;0.40;99.90;;;;;;6743811;88;20188;-75
2023/02/26 20:16:09;;;;;;;1999.90;999.90;;;0.30;99.90;;;;;;6731962;88;20683;-78
2023/02/26 20:26:12;;;;;;;1999.90;999.90;;;0.20;99.90;;;;;;6740818;88;20205;-76
2023/02/26 20:36:13;;;;;;;1999.90;999.90;;;0.10;99.90;;;;;;6737517;77;20197;-77
2023/02/26 20:46:14;;;;;;;1999.90;999.90;;;0.00;99.90;;;;;;6738950;87;20180;-78
2023/02/26 20:56:16;;;;;;;1999.90;999.90;;;-0.10;99.90;;;;;;6754928;87;20591;-78
2023/02/26 21:06:17;;;;;;;1999.90;999.90;;;-0.20;99.90;;;;;;6750944;87;20242;-78
2023/02/26 21:16:17;;;;;;;1999.90;999.90;;;-0.20;99.90;;;;;;6749702;87;20398;-78
2023/02/26 21:26:19;;;;;;;1999.90;999.90;;;-0.30;99.90;;;;;;6753327;87;20649;-77
2023/02/26 21:36:19;;;;;;;1999.90;999.90;;;-0.30;99.90;;;;;;6750955;87;20270;-78
2023/02/26 21:46:21;;;;;;;1999.90;999.90;;;-0.30;99.90;;;;;;6749840;87;20722;-78
2023/02/26 21:56:22;;;;;;;1999.90;999.90;;;-0.30;99.90;;;;;;6753781;87;20725;-78
2023/02/26 22:06:23;;;;;;;1999.90;999.90;;;-0.30;99.90;;;;;;6757580;88;20180;-78
2023/02/26 22:16:24;;;;;;;1999.90;999.90;;;-0.30;99.90;;;;;;6757971;87;20329;-78
2023/02/26 22:26:24;;;;;;;1999.90;999.90;;;-0.70;99.90;;;;;;6754607;87;20731;-78
2023/02/26 22:36:26;;;;;;;1999.90;999.90;;;-0.60;99.90;;;;;;6756446;87;20217;-78
2023/02/26 22:46:27;;;;;;;1999.90;999.90;;;-0.70;99.90;;;;;;6757146;88;20309;-77
2023/02/26 22:56:27;;;;;;;1999.90;999.90;;;-0.90;99.90;;;;;;6758840;87;20164;-77
2023/02/26 23:06:28;;;;;;;1999.90;999.90;;;-0.90;99.90;;;;;;6756206;87;20201;-75
2023/02/26 23:16:28;;;;;;;1999.90;999.90;;;-1.00;99.90;;;;;;6750459;88;20348;-78
2023/02/26 23:26:29;;;;;;;1999.90;999.90;;;-1.10;99.90;;;;;;6752754;87;20191;-76
2023/02/26 23:36:30;;;;;;;1999.90;999.90;;;-1.20;99.90;;;;;;6753788;87;20197;-76
2023/02/26 23:46:30;;;;;;;1999.90;999.90;;;-1.30;99.90;;;;;;6754295;87;20229;-76
2023/02/26 23:56:31;;;;;;;1999.90;999.90;;;-1.40;99.90;;;;;;6756612;87;20319;-76
